Time;durP1;ratioP1;P1;durP2;ratioP2;P2;SDS_P1;SDS_P2;PMS_P1;PMS_P2;Temp;Humidity;BMP_temperature;BMP_pressure;BME280_temperature;BME280_humidity;BME280_pressure;Samples;Min_cycle;Max_cycle;Signal;HPM_P1;HPM_P2
2023/08/15 00:01:16;;;;;;;0.10;0.10;;;;;;;22.93;71.95;97526.84;5069131;28;20045;-69
2023/08/15 00:03:46;;;;;;;0.10;0.10;;;;;;;22.89;71.84;97531.19;5063868;28;20048;-69
2023/08/15 00:06:14;;;;;;;0.00;0.00;;;;;;;22.89;71.86;97524.94;5069281;28;20050;-70
2023/08/15 00:08:43;;;;;;;0.08;0.08;;;;;;;22.86;72.09;97520.03;5068703;28;20048;-69
2023/08/15 00:11:10;;;;;;;0.00;0.00;;;;;;;22.86;72.17;97522.75;5063495;28;20052;-69
2023/08/15 00:13:38;;;;;;;0.10;0.10;;;;;;;22.86;72.17;97518.13;5058982;28;20509;-69
2023/08/15 00:16:06;;;;;;;0.00;0.00;;;;;;;22.85;72.26;97508.31;5069415;28;20036;-69
2023/08/15 00:18:33;;;;;;;0.00;0.00;;;;;;;22.85;71.93;97511.03;5056468;28;20530;-70
2023/08/15 00:21:01;;;;;;;0.10;0.10;;;;;;;22.83;72.11;97507.00;5063546;28;20051;-72
2023/08/15 00:23:29;;;;;;;0.00;0.00;;;;;;;22.83;72.39;97501.53;5062673;28;20504;-73
2023/08/15 00:25:58;;;;;;;0.00;0.00;;;;;;;22.81;72.02;97501.81;5070295;28;20055;-75
2023/08/15 00:28:25;;;;;;;0.00;0.00;;;;;;;22.78;72.42;97506.97;5067951;28;20127;-73
2023/08/15 00:30:53;;;;;;;0.00;0.00;;;;;;;22.69;72.75;97501.25;5070970;28;20040;-73
2023/08/15 00:33:23;;;;;;;0.03;0.03;;;;;;;22.72;72.69;97508.88;5057833;28;20161;-73
2023/08/15 00:35:50;;;;;;;0.05;0.05;;;;;;;22.72;72.31;97508.06;5067316;28;20112;-73
2023/08/15 00:38:18;;;;;;;0.00;0.00;;;;;;;22.72;72.57;97491.72;5069253;28;20086;-73
2023/08/15 00:40:46;;;;;;;0.10;0.10;;;;;;;22.75;71.94;97499.31;5065405;28;20131;-73
2023/08/15 00:43:17;;;;;;;0.00;0.00;;;;;;;22.71;71.91;97493.63;5065332;28;20143;-74
2023/08/15 00:45:45;;;;;;;0.10;0.10;;;;;;;22.69;72.38;97496.63;5071265;28;20048;-73
2023/08/15 00:48:13;;;;;;;0.10;0.10;;;;;;;22.68;72.39;97496.91;5066386;28;20048;-73
2023/08/15 00:50:43;;;;;;;0.10;0.10;;;;;;;22.65;72.56;97492.00;5068834;28;20618;-74
2023/08/15 00:53:11;;;;;;;0.00;0.00;;;;;;;22.48;73.43;97496.94;5072443;28;20075;-74
2023/08/15 00:55:39;;;;;;;0.20;0.20;;;;;;;22.31;73.99;97489.88;5070380;28;20059;-74
2023/08/15 00:58:07;;;;;;;0.10;0.10;;;;;;;22.32;73.80;97498.84;5068446;28;20131;-74
2023/08/15 01:00:36;;;;;;;0.10;0.10;;;;;;;22.31;73.65;97503.47;5059915;28;20068;-74
2023/08/15 01:03:04;;;;;;;0.03;0.03;;;;;;;22.27;74.45;97498.84;5069580;28;20478;-72
2023/08/15 01:05:34;;;;;;;0.00;0.00;;;;;;;22.17;75.08;97498.84;5064118;28;20040;-71
2023/08/15 01:08:02;;;;;;;0.10;0.05;;;;;;;22.03;75.37;97493.09;5082263;28;20090;-71
2023/08/15 01:10:30;;;;;;;0.10;0.10;;;;;;;21.94;75.85;97497.41;5071852;28;20044;-71
2023/08/15 01:13:02;;;;;;;0.13;0.13;;;;;;;21.87;76.32;97497.69;5069586;28;20554;-71
2023/08/15 01:15:32;;;;;;;0.00;0.00;;;;;;;21.73;76.63;97488.41;5062791;28;20049;-71
2023/08/15 01:18:05;;;;;;;0.00;0.00;;;;;;;21.72;76.86;97485.94;5065438;28;20043;-72
2023/08/15 01:20:34;;;;;;;0.00;0.00;;;;;;;21.72;76.60;97485.94;5064963;28;20497;-72
2023/08/15 01:23:06;;;;;;;0.17;0.10;;;;;;;21.86;75.82;97493.34;5058605;28;20052;-72
2023/08/15 01:25:40;;;;;;;0.00;0.00;;;;;;;21.70;76.64;97488.16;5069119;28;20044;-72
2023/08/15 01:28:11;;;;;;;0.10;0.10;;;;;;;21.58;77.03;97488.38;5068001;28;20044;-73
2023/08/15 01:30:41;;;;;;;0.10;0.10;;;;;;;21.55;77.14;97489.72;5060028;28;20079;-73
2023/08/15 01:33:15;;;;;;;0.03;0.03;;;;;;;21.54;77.19;97488.09;5062241;28;20434;-73
2023/08/15 01:35:46;;;;;;;0.10;0.10;;;;;;;21.47;77.20;97492.16;5064125;28;20112;-74
2023/08/15 01:38:21;;;;;;;0.10;0.10;;;;;;;21.44;77.03;97493.50;5064766;28;20057;-73
2023/08/15 01:40:52;;;;;;;0.10;0.10;;;;;;;21.38;77.25;97491.03;5064617;28;20028;-73
2023/08/15 01:43:20;;;;;;;0.03;0.03;;;;;;;21.36;77.06;97476.91;5056346;28;20135;-72
2023/08/15 01:45:48;;;;;;;0.10;0.10;;;;;;;21.24;77.47;97485.28;5071517;28;20498;-73
2023/08/15 01:48:16;;;;;;;0.20;0.20;;;;;;;21.24;77.63;97477.94;5065394;28;20525;-74
2023/08/15 01:50:44;;;;;;;0.10;0.10;;;;;;;21.20;77.58;97473.31;5071542;28;20048;-75
2023/08/15 01:53:11;;;;;;;0.10;0.10;;;;;;;21.08;78.11;97467.25;5054315;28;20513;-74
2023/08/15 01:55:40;;;;;;;0.10;0.10;;;;;;;21.06;77.86;97472.13;5069753;28;20553;-74
2023/08/15 01:58:09;;;;;;;0.10;0.10;;;;;;;20.90;78.80;97473.94;5061200;28;20774;-74
2023/08/15 02:00:36;;;;;;;0.00;0.00;;;;;;;20.76;79.07;97479.06;5059683;28;20052;-74
2023/08/15 02:03:05;;;;;;;0.10;0.10;;;;;;;20.70;78.97;97474.66;5063391;28;20044;-74
2023/08/15 02:05:32;;;;;;;0.00;0.00;;;;;;;20.70;79.08;97477.38;5066297;28;20081;-73
2023/08/15 02:08:02;;;;;;;0.10;0.10;;;;;;;20.47;79.96;97475.84;5070593;28;20078;-73
2023/08/15 02:10:30;;;;;;;0.10;0.10;;;;;;;20.51;79.92;97478.88;5065142;28;20127;-73
2023/08/15 02:12:58;;;;;;;0.00;0.00;;;;;;;20.44;80.87;97462.03;5070348;28;20075;-72
2023/08/15 02:15:27;;;;;;;0.10;0.10;;;;;;;20.42;80.59;97466.88;5071210;28;20119;-73
2023/08/15 02:17:56;;;;;;;0.30;0.30;;;;;;;20.41;80.84;97467.97;5067004;28;20472;-72
2023/08/15 02:20:24;;;;;;;0.00;0.00;;;;;;;20.49;80.63;97471.00;5067198;28;20570;-71
2023/08/15 02:22:52;;;;;;;0.10;0.10;;;;;;;20.40;81.01;97467.16;5063253;28;20044;-72
2023/08/15 02:25:19;;;;;;;0.00;0.00;;;;;;;20.39;81.25;97464.69;5061662;28;20051;-72
2023/08/15 02:27:47;;;;;;;0.00;0.00;;;;;;;20.49;80.96;97462.84;5061429;28;20481;-73
2023/08/15 02:30:14;;;;;;;0.10;0.10;;;;;;;20.51;80.56;97457.19;5069841;28;20040;-73
2023/08/15 02:32:45;;;;;;;0.10;0.10;;;;;;;20.51;80.75;97458.00;5059346;28;20044;-73
2023/08/15 02:35:13;;;;;;;0.03;0.03;;;;;;;20.44;80.77;97464.72;5052681;28;20151;-73
2023/08/15 02:37:41;;;;;;;0.03;0.03;;;;;;;20.56;80.22;97457.19;5060638;28;20036;-72
2023/08/15 02:40:09;;;;;;;0.10;0.10;;;;;;;20.46;80.22;97466.09;5062353;28;20501;-73
2023/08/15 02:42:37;;;;;;;0.08;0.08;;;;;;;20.45;80.41;97455.53;5055306;28;20057;-72
2023/08/15 02:45:06;;;;;;;0.03;0.03;;;;;;;20.37;80.75;97456.00;5065612;28;20045;-73
2023/08/15 02:47:34;;;;;;;0.30;0.30;;;;;;;20.39;80.46;97457.38;5064338;28;20490;-73
2023/08/15 02:50:04;;;;;;;0.10;0.10;;;;;;;20.16;81.50;97455.81;5067179;28;20085;-72
2023/08/15 02:52:31;;;;;;;0.10;0.10;;;;;;;19.96;82.51;97450.22;5057023;28;20041;-71
2023/08/15 02:55:00;;;;;;;0.10;0.10;;;;;;;20.04;81.82;97444.31;5065126;28;20041;-72
2023/08/15 02:57:28;;;;;;;0.10;0.10;;;;;;;20.00;82.04;97437.81;5066495;28;20091;-71
2023/08/15 02:59:56;;;;;;;0.10;0.10;;;;;;;20.17;81.24;97449.31;5058159;28;20116;-71
2023/08/15 03:02:23;;;;;;;0.45;0.08;;;;;;;20.14;81.52;97446.31;5057667;28;20043;-72
2023/08/15 03:04:51;;;;;;;0.10;0.10;;;;;;;20.21;81.15;97435.25;5059538;28;20076;-71
2023/08/15 03:07:20;;;;;;;0.10;0.10;;;;;;;20.20;81.09;97433.63;5059790;28;20111;-71
2023/08/15 03:09:48;;;;;;;0.13;0.13;;;;;;;20.22;80.84;97439.59;5070731;28;20515;-70
2023/08/15 03:12:16;;;;;;;0.10;0.10;;;;;;;20.14;81.11;97440.91;5056635;28;20075;-70
2023/08/15 03:14:43;;;;;;;0.10;0.08;;;;;;;20.07;81.24;97430.25;5063554;28;20124;-72
2023/08/15 03:17:11;;;;;;;0.03;0.03;;;;;;;20.09;81.46;97436.25;5056238;28;20037;-72
2023/08/15 03:19:40;;;;;;;0.10;0.10;;;;;;;19.99;81.82;97432.63;5059826;28;20075;-72
2023/08/15 03:22:08;;;;;;;0.00;0.00;;;;;;;20.07;81.22;97435.69;5059620;28;20048;-72
2023/08/15 03:24:38;;;;;;;0.10;0.10;;;;;;;20.02;81.63;97432.13;5060879;28;20059;-72
2023/08/15 03:27:06;;;;;;;0.00;0.00;;;;;;;20.02;81.53;97427.53;5063627;28;20045;-72
2023/08/15 03:29:34;;;;;;;0.10;0.10;;;;;;;20.06;81.48;97423.22;5068437;28;20128;-71
2023/08/15 03:32:02;;;;;;;0.10;0.10;;;;;;;20.12;80.86;97427.59;5058219;28;20079;-72
2023/08/15 03:34:34;;;;;;;0.20;0.20;;;;;;;20.03;81.53;97429.16;5061459;28;20040;-72
2023/08/15 03:37:02;;;;;;;0.10;0.10;;;;;;;19.94;81.50;97435.28;5081562;28;20113;-72
2023/08/15 03:39:30;;;;;;;0.00;0.00;;;;;;;19.87;81.74;97437.41;5064148;28;20041;-71
2023/08/15 03:41:59;;;;;;;0.00;0.00;;;;;;;19.79;81.92;97436.00;5072346;28;20412;-71
2023/08/15 03:44:26;;;;;;;0.10;0.10;;;;;;;19.61;83.43;97442.59;5065797;28;20131;-71
2023/08/15 03:46:54;;;;;;;0.10;0.10;;;;;;;19.67;83.12;97433.44;5070915;28;20055;-74
2023/08/15 03:49:22;;;;;;;0.10;0.10;;;;;;;19.74;82.01;97444.06;5073819;28;20036;-72
2023/08/15 03:51:49;;;;;;;0.10;0.10;;;;;;;19.64;82.20;97441.25;5073098;28;20033;-72
2023/08/15 03:54:17;;;;;;;0.10;0.10;;;;;;;19.55;82.42;97451.75;5060977;28;20497;-72
2023/08/15 03:56:46;;;;;;;0.00;0.00;;;;;;;19.41;82.86;97445.88;5069812;28;20044;-73
2023/08/15 03:59:15;;;;;;;0.20;0.20;;;;;;;19.42;82.97;97446.69;5065575;28;20043;-71
2023/08/15 04:01:43;;;;;;;0.10;0.10;;;;;;;19.54;82.33;97446.56;5069310;28;20771;-71
2023/08/15 04:04:11;;;;;;;0.22;0.22;;;;;;;19.57;82.69;97446.06;5063856;28;20396;-73
2023/08/15 04:06:39;;;;;;;0.15;0.15;;;;;;;19.44;83.50;97445.38;5066316;28;20064;-73
2023/08/15 04:09:07;;;;;;;0.10;0.10;;;;;;;19.57;82.73;97449.59;5066524;28;20041;-72
2023/08/15 04:11:34;;;;;;;0.10;0.10;;;;;;;19.65;82.23;97445.59;5086184;28;20049;-71
2023/08/15 04:14:02;;;;;;;0.00;0.00;;;;;;;19.58;82.92;97453.94;5061930;28;20574;-68
2023/08/15 04:16:31;;;;;;;0.10;0.10;;;;;;;19.56;82.53;97452.56;5060799;28;20036;-70
2023/08/15 04:18:59;;;;;;;0.10;0.10;;;;;;;19.61;82.88;97452.63;5082128;28;20044;-71
2023/08/15 04:21:27;;;;;;;0.10;0.10;;;;;;;19.67;82.56;97460.53;5061173;28;20086;-71
2023/08/15 04:23:54;;;;;;;0.00;0.00;;;;;;;19.44;83.76;97464.31;5063107;28;20064;-70
2023/08/15 04:26:22;;;;;;;0.10;0.10;;;;;;;19.38;84.62;97462.63;5063467;28;20044;-71
2023/08/15 04:28:50;;;;;;;0.30;0.30;;;;;;;19.33;85.06;97462.56;5063463;28;20534;-71
2023/08/15 04:31:17;;;;;;;0.10;0.10;;;;;;;19.43;83.88;97462.69;5082804;28;20048;-71
2023/08/15 04:33:46;;;;;;;0.00;0.00;;;;;;;19.61;82.93;97466.97;5070954;28;20037;-71
2023/08/15 04:36:14;;;;;;;0.10;0.10;;;;;;;19.65;83.00;97461.84;5064287;28;20641;-70
2023/08/15 04:38:42;;;;;;;0.03;0.03;;;;;;;19.68;82.62;97462.16;5070178;28;20041;-70
2023/08/15 04:41:11;;;;;;;0.10;0.10;;;;;;;19.66;82.77;97460.78;5067370;28;20045;-70
2023/08/15 04:43:38;;;;;;;0.10;0.10;;;;;;;19.56;83.21;97452.56;5071815;28;20037;-70
2023/08/15 04:46:06;;;;;;;0.05;0.05;;;;;;;19.58;83.40;97455.84;5066440;28;20502;-70
2023/08/15 04:48:34;;;;;;;0.13;0.13;;;;;;;19.58;83.30;97459.34;5062978;28;20048;-70
2023/08/15 04:51:03;;;;;;;0.00;0.00;;;;;;;19.60;83.32;97461.81;5057946;28;20604;-70
2023/08/15 04:53:30;;;;;;;0.10;0.10;;;;;;;19.50;83.81;97462.53;5055510;28;20049;-71
2023/08/15 04:55:58;;;;;;;0.10;0.10;;;;;;;19.47;84.28;97462.19;5065646;28;20045;-70
2023/08/15 04:58:26;;;;;;;0.10;0.10;;;;;;;19.58;84.04;97466.66;5064265;28;20037;-70
2023/08/15 05:00:53;;;;;;;0.03;0.03;;;;;;;19.56;84.12;97460.69;5081509;28;20040;-70
2023/08/15 05:03:21;;;;;;;0.15;0.15;;;;;;;19.62;84.12;97465.88;5057645;28;20045;-70
2023/08/15 05:05:49;;;;;;;0.10;0.10;;;;;;;19.60;84.27;97464.53;5067554;28;20049;-70
2023/08/15 05:08:18;;;;;;;0.10;0.10;;;;;;;19.69;83.81;97457.56;5070635;28;20555;-70
2023/08/15 05:10:45;;;;;;;0.13;0.10;;;;;;;19.75;83.57;97464.66;5069267;28;20139;-70
2023/08/15 05:13:13;;;;;;;0.10;0.10;;;;;;;19.70;83.90;97465.44;5076833;28;21467;-70
2023/08/15 05:15:41;;;;;;;0.10;0.10;;;;;;;19.78;83.25;97461.44;5062178;28;20048;-70
2023/08/15 05:18:11;;;;;;;0.05;0.00;;;;;;;19.87;83.30;97469.91;5063802;28;20159;-70
2023/08/15 05:20:39;;;;;;;0.10;0.10;;;;;;;20.02;82.75;97473.59;5057088;28;20124;-71
2023/08/15 05:23:07;;;;;;;0.10;0.10;;;;;;;20.07;82.52;97473.63;5068089;28;20044;-71
2023/08/15 05:25:36;;;;;;;0.10;0.10;;;;;;;20.15;82.22;97477.75;5065845;28;20052;-73
2023/08/15 05:28:06;;;;;;;0.00;0.00;;;;;;;20.23;82.10;97485.44;5064640;28;20074;-69
2023/08/15 05:30:34;;;;;;;0.10;0.10;;;;;;;20.34;81.41;97484.44;5059475;28;20041;-72
2023/08/15 05:33:01;;;;;;;0.10;0.10;;;;;;;20.42;81.73;97481.25;5059208;28;20044;-72
2023/08/15 05:35:29;;;;;;;0.10;0.10;;;;;;;20.54;81.11;97486.50;5064104;28;20079;-71
2023/08/15 05:37:57;;;;;;;0.10;0.10;;;;;;;20.67;80.73;97488.72;5065482;28;20115;-71
2023/08/15 05:40:25;;;;;;;0.10;0.10;;;;;;;20.73;80.76;97485.00;5062844;28;20044;-71
2023/08/15 05:42:54;;;;;;;0.00;0.00;;;;;;;20.83;79.93;97485.06;5065867;28;20087;-69
2023/08/15 05:45:22;;;;;;;0.00;0.00;;;;;;;20.96;79.78;97485.66;5064287;28;20052;-70
2023/08/15 05:47:49;;;;;;;0.10;0.10;;;;;;;21.04;79.50;97498.72;5056304;28;20087;-69
2023/08/15 05:50:17;;;;;;;0.00;0.00;;;;;;;21.08;79.62;97494.38;5056771;28;20134;-71
2023/08/15 05:52:45;;;;;;;0.00;0.00;;;;;;;21.15;79.21;97495.81;5054124;28;20037;-71
2023/08/15 05:55:13;;;;;;;0.10;0.10;;;;;;;21.15;79.26;97506.66;5059959;28;20480;-69
2023/08/15 05:57:40;;;;;;;0.10;0.10;;;;;;;21.15;78.94;97500.41;5060455;28;20120;-71
2023/08/15 06:00:12;;;;;;;0.10;0.10;;;;;;;21.14;79.31;97498.78;5054557;28;21187;-69
2023/08/15 06:02:41;;;;;;;0.00;0.00;;;;;;;21.19;78.88;97496.91;5057858;28;20052;-69
2023/08/15 06:05:09;;;;;;;0.10;0.10;;;;;;;21.26;79.23;97498.59;5056899;28;20494;-69
2023/08/15 06:07:36;;;;;;;0.13;0.10;;;;;;;21.28;78.94;97502.69;5066994;28;20043;-72
2023/08/15 06:10:06;;;;;;;0.13;0.13;;;;;;;21.30;79.38;97503.22;5057899;28;20124;-70
2023/08/15 06:12:34;;;;;;;0.05;0.03;;;;;;;21.36;79.19;97507.59;5066935;28;20490;-73
2023/08/15 06:15:01;;;;;;;0.10;0.10;;;;;;;21.44;79.21;97511.69;5060499;28;20037;-69
2023/08/15 06:17:30;;;;;;;0.10;0.10;;;;;;;21.49;78.42;97509.00;5061957;28;20610;-69
2023/08/15 06:19:58;;;;;;;0.10;0.10;;;;;;;21.62;78.49;97511.19;5057303;28;20059;-70
2023/08/15 06:22:26;;;;;;;0.10;0.10;;;;;;;21.75;78.37;97499.84;5067012;28;20482;-70
2023/08/15 06:24:54;;;;;;;0.10;0.10;;;;;;;21.84;77.60;97502.84;5058423;28;20040;-70
2023/08/15 06:27:21;;;;;;;0.13;0.10;;;;;;;21.92;77.44;97502.28;5063089;28;20052;-71
2023/08/15 06:29:49;;;;;;;0.10;0.10;;;;;;;22.05;77.53;97503.72;5060941;28;20052;-70
2023/08/15 06:32:27;;;;;;;0.10;0.10;;;;;;;22.18;76.45;97498.56;5060963;28;20457;-70
2023/08/15 06:34:56;;;;;;;0.05;0.05;;;;;;;22.29;76.63;97500.19;5070231;28;20067;-70
2023/08/15 06:37:24;;;;;;;0.10;0.10;;;;;;;22.45;75.76;97492.03;5065714;28;20044;-70
2023/08/15 06:39:51;;;;;;;0.10;0.10;;;;;;;22.56;75.79;97489.03;5065760;28;20045;-71
2023/08/15 06:42:19;;;;;;;0.00;0.00;;;;;;;22.68;75.69;97495.00;5069509;28;20047;-71
2023/08/15 06:44:47;;;;;;;0.03;0.03;;;;;;;22.83;75.42;97505.09;5069214;28;20047;-70
2023/08/15 06:47:15;;;;;;;0.10;0.10;;;;;;;22.96;74.76;97503.66;5061538;28;20578;-70
2023/08/15 06:49:42;;;;;;;0.00;0.00;;;;;;;23.12;73.77;97518.91;5063354;28;20047;-70
2023/08/15 06:52:11;;;;;;;0.00;0.00;;;;;;;23.31;72.80;97522.63;5065851;28;20044;-71
2023/08/15 06:54:39;;;;;;;0.10;0.10;;;;;;;23.49;72.44;97521.19;5063045;28;20036;-70
2023/08/15 06:57:07;;;;;;;0.00;0.00;;;;;;;23.63;71.12;97518.72;5066372;28;20044;-70
2023/08/15 06:59:35;;;;;;;0.50;0.17;;;;;;;23.76;71.56;97516.19;5067845;28;20044;-71
2023/08/15 07:02:05;;;;;;;0.10;0.10;;;;;;;23.88;71.04;97523.22;5060700;28;20075;-69
2023/08/15 07:04:36;;;;;;;0.10;0.10;;;;;;;24.00;69.88;97520.94;5066408;28;20584;-71
2023/08/15 07:07:04;;;;;;;0.50;0.10;;;;;;;24.14;69.25;97516.50;5061832;28;20485;-70
2023/08/15 07:09:35;;;;;;;0.03;0.03;;;;;;;24.32;68.53;97515.03;5060101;28;20047;-70
2023/08/15 07:12:04;;;;;;;0.08;0.08;;;;;;;24.48;67.78;97513.81;5063928;28;20075;-70
2023/08/15 07:14:32;;;;;;;0.10;0.10;;;;;;;24.64;67.13;97525.41;5064933;28;20037;-70
2023/08/15 07:17:01;;;;;;;0.00;0.00;;;;;;;24.80;65.84;97521.44;5069298;28;20037;-70
2023/08/15 07:19:29;;;;;;;0.05;0.05;;;;;;;24.91;65.88;97535.81;5062370;28;20106;-70
2023/08/15 07:21:56;;;;;;;0.00;0.00;;;;;;;24.97;65.55;97532.75;5063657;28;20036;-72
2023/08/15 07:24:24;;;;;;;0.00;0.00;;;;;;;25.00;65.60;97534.13;5071863;28;20043;-70
2023/08/15 07:26:53;;;;;;;0.00;0.00;;;;;;;25.04;65.39;97532.41;5069156;28;20037;-70
2023/08/15 07:29:21;;;;;;;0.10;0.10;;;;;;;25.07;65.06;97531.84;5055910;28;20036;-70
2023/08/15 07:31:49;;;;;;;0.00;0.00;;;;;;;25.10;65.07;97534.81;5066444;28;20493;-71
2023/08/15 07:34:16;;;;;;;0.10;0.10;;;;;;;25.13;64.79;97538.88;5073950;28;20105;-70
2023/08/15 07:36:44;;;;;;;0.10;0.10;;;;;;;25.20;64.56;97542.09;5066414;28;20047;-70
2023/08/15 07:39:12;;;;;;;0.00;0.00;;;;;;;25.29;64.08;97555.94;5064882;28;20509;-70
2023/08/15 07:41:41;;;;;;;0.00;0.00;;;;;;;25.33;63.63;97557.81;5062478;28;20036;-69
2023/08/15 07:44:10;;;;;;;0.08;0.08;;;;;;;25.41;63.30;97570.00;5067479;28;20052;-70
2023/08/15 07:46:39;;;;;;;0.10;0.10;;;;;;;25.45;63.89;97560.91;5072015;28;20041;-70
2023/08/15 07:49:06;;;;;;;0.10;0.10;;;;;;;25.46;63.03;97559.00;5067981;28;20044;-70
2023/08/15 07:51:34;;;;;;;0.00;0.00;;;;;;;25.45;63.34;97560.09;5067679;28;20045;-70
2023/08/15 07:54:02;;;;;;;0.00;0.00;;;;;;;25.50;63.30;97560.06;5064322;28;20032;-71
2023/08/15 07:56:30;;;;;;;0.05;0.00;;;;;;;25.72;62.90;97563.09;5069065;28;20041;-70
2023/08/15 07:58:58;;;;;;;0.00;0.00;;;;;;;25.93;62.37;97558.19;5067470;28;20123;-71
2023/08/15 08:01:28;;;;;;;0.03;0.03;;;;;;;26.16;61.52;97551.00;5069072;28;20029;-71
2023/08/15 08:03:56;;;;;;;0.10;0.10;;;;;;;26.37;61.35;97540.59;5061718;28;20067;-70
2023/08/15 08:06:24;;;;;;;0.00;0.00;;;;;;;26.54;60.78;97555.38;5061349;28;20386;-71
2023/08/15 08:09:08;;;;;;;0.00;0.00;;;;;;;26.66;60.27;97555.72;5062517;28;20078;-71
2023/08/15 08:11:36;;;;;;;0.00;0.00;;;;;;;26.76;60.02;97562.97;5066379;28;20048;-70
2023/08/15 08:14:04;;;;;;;0.10;0.10;;;;;;;26.89;59.97;97562.16;5065614;28;20510;-70
2023/08/15 08:16:33;;;;;;;0.00;0.00;;;;;;;27.00;59.75;97563.63;5063960;28;20041;-71
2023/08/15 08:19:01;;;;;;;0.00;0.00;;;;;;;27.12;59.22;97560.41;5069218;28;20041;-70
2023/08/15 08:21:28;;;;;;;0.00;0.00;;;;;;;27.17;59.26;97563.06;5060385;28;20042;-71
2023/08/15 08:23:56;;;;;;;0.00;0.00;;;;;;;27.23;59.01;97548.16;5060238;28;20044;-71
2023/08/15 08:26:24;;;;;;;0.00;0.00;;;;;;;27.34;58.40;97554.25;5065760;28;20048;-70
2023/08/15 08:28:51;;;;;;;0.05;0.05;;;;;;;27.50;58.02;97543.81;5059118;28;20402;-70
2023/08/15 08:31:19;;;;;;;0.00;0.00;;;;;;;27.67;58.28;97553.06;5063105;28;20067;-71
2023/08/15 08:33:48;;;;;;;0.00;0.00;;;;;;;27.88;57.75;97545.22;5065132;28;20048;-71
2023/08/15 08:36:16;;;;;;;0.00;0.00;;;;;;;28.05;56.80;97544.56;5064575;28;20074;-72
2023/08/15 08:38:43;;;;;;;0.10;0.10;;;;;;;28.28;56.10;97540.75;5071177;28;20051;-70
2023/08/15 08:41:12;;;;;;;0.00;0.00;;;;;;;28.32;55.76;97543.72;5065348;28;20051;-71
2023/08/15 08:43:40;;;;;;;0.00;0.00;;;;;;;28.47;55.39;97543.31;5067890;28;20483;-71
2023/08/15 08:46:09;;;;;;;0.10;0.00;;;;;;;28.71;54.54;97545.78;5065392;28;20729;-70
2023/08/15 08:48:37;;;;;;;0.00;0.00;;;;;;;28.68;54.75;97544.44;5068835;28;20044;-71
2023/08/15 08:51:08;;;;;;;0.00;0.00;;;;;;;28.66;54.43;97548.63;5064352;28;20049;-71
2023/08/15 08:53:36;;;;;;;0.05;0.05;;;;;;;28.57;54.29;97559.56;5060770;28;20037;-71
2023/08/15 08:56:04;;;;;;;0.00;0.00;;;;;;;28.62;54.21;97553.16;5067399;28;20036;-71
2023/08/15 08:58:32;;;;;;;0.05;0.00;;;;;;;28.79;54.34;97536.78;5065440;28;20119;-71
2023/08/15 09:01:02;;;;;;;0.00;0.00;;;;;;;28.98;53.33;97548.38;5067272;28;20043;-70
2023/08/15 09:03:30;;;;;;;0.00;0.00;;;;;;;28.93;54.03;97545.78;5055715;28;20147;-71
2023/08/15 09:05:58;;;;;;;0.10;0.10;;;;;;;29.01;53.72;97549.69;5064279;28;20048;-69
2023/08/15 09:08:27;;;;;;;0.00;0.00;;;;;;;29.06;53.18;97546.84;5066083;28;20072;-72
2023/08/15 09:10:55;;;;;;;0.00;0.00;;;;;;;29.18;52.67;97552.53;5070315;28;20130;-69
2023/08/15 09:13:24;;;;;;;0.10;0.10;;;;;;;29.28;52.65;97551.47;5055759;28;20064;-68
2023/08/15 09:15:56;;;;;;;0.00;0.00;;;;;;;29.48;52.81;97549.00;5065147;28;20044;-69
2023/08/15 09:18:27;;;;;;;0.00;0.00;;;;;;;29.73;50.90;97541.94;5061607;28;20093;-69
2023/08/15 09:20:54;;;;;;;0.00;0.00;;;;;;;29.85;50.72;97536.63;5063495;28;20045;-69
2023/08/15 09:23:22;;;;;;;0.00;0.00;;;;;;;29.88;50.47;97535.19;5063221;28;20784;-70
2023/08/15 09:25:55;;;;;;;0.00;0.00;;;;;;;29.84;50.21;97536.94;5067101;28;20047;-69
2023/08/15 09:28:23;;;;;;;0.00;0.00;;;;;;;29.51;49.99;97534.59;5065132;28;20078;-69
2023/08/15 09:30:52;;;;;;;0.00;0.00;;;;;;;29.32;50.99;97534.00;5064971;28;20064;-69
2023/08/15 09:33:20;;;;;;;0.00;0.00;;;;;;;29.58;50.51;97528.63;5061935;28;21303;-69
2023/08/15 09:35:48;;;;;;;0.00;0.00;;;;;;;29.85;49.05;97531.13;5070901;28;20043;-70
2023/08/15 09:38:25;;;;;;;0.10;0.10;;;;;;;30.12;48.03;97531.97;5059749;28;20433;-70
2023/08/15 09:40:54;;;;;;;0.00;0.00;;;;;;;30.34;46.21;97520.00;5062350;28;20043;-70
2023/08/15 09:43:21;;;;;;;0.00;0.00;;;;;;;30.43;45.62;97524.38;5063229;28;20045;-70
2023/08/15 09:45:50;;;;;;;0.00;0.00;;;;;;;30.26;46.18;97524.38;5069687;28;20037;-70
2023/08/15 09:48:18;;;;;;;0.10;0.00;;;;;;;30.01;47.26;97533.41;5066372;28;20478;-70
2023/08/15 09:50:48;;;;;;;0.00;0.00;;;;;;;30.23;46.72;97525.84;5069017;28;20160;-70
2023/08/15 09:53:17;;;;;;;0.00;0.00;;;;;;;30.43;46.77;97518.03;5058847;28;20048;-70
2023/08/15 09:55:45;;;;;;;0.00;0.00;;;;;;;30.52;46.35;97510.59;5063285;28;20076;-69
2023/08/15 09:58:16;;;;;;;0.00;0.00;;;;;;;30.33;45.51;97516.44;5065586;28;20048;-70
2023/08/15 10:00:45;;;;;;;0.20;0.20;;;;;;;30.36;46.22;97513.03;5067982;28;20402;-69
2023/08/15 10:03:18;;;;;;;0.03;0.00;;;;;;;30.48;47.10;97509.63;5068126;28;20040;-69
2023/08/15 10:05:53;;;;;;;0.00;0.00;;;;;;;30.54;46.21;97514.66;5058752;28;20497;-70
2023/08/15 10:08:21;;;;;;;0.00;0.00;;;;;;;30.35;44.95;97510.59;5063366;28;20565;-69
2023/08/15 10:10:50;;;;;;;0.00;0.00;;;;;;;30.54;45.57;97513.84;5067197;28;20047;-69
2023/08/15 10:13:21;;;;;;;0.00;0.00;;;;;;;30.65;45.46;97512.38;5069770;28;20116;-69
2023/08/15 10:15:49;;;;;;;0.00;0.00;;;;;;;30.60;44.19;97510.63;5058275;28;20385;-69
2023/08/15 10:18:17;;;;;;;0.00;0.00;;;;;;;30.58;45.10;97509.31;5059922;28;20037;-69
2023/08/15 10:20:50;;;;;;;0.00;0.00;;;;;;;30.60;45.01;97509.81;5062616;28;20056;-70
2023/08/15 10:23:24;;;;;;;0.00;0.00;;;;;;;30.69;45.24;97510.59;5059845;28;20040;-70
2023/08/15 10:25:52;;;;;;;0.00;0.00;;;;;;;30.62;44.31;97507.53;5067437;28;20041;-68
2023/08/15 10:28:22;;;;;;;0.00;0.00;;;;;;;30.56;43.90;97506.88;5070158;28;20040;-69
2023/08/15 10:30:50;;;;;;;0.00;0.00;;;;;;;30.51;43.57;97506.22;5055960;28;20110;-69
2023/08/15 10:33:20;;;;;;;0.00;0.00;;;;;;;30.58;43.81;97509.31;5056437;28;20529;-70
2023/08/15 10:35:50;;;;;;;0.10;0.00;;;;;;;30.80;43.31;97511.06;5059952;28;20036;-70
2023/08/15 10:38:20;;;;;;;0.00;0.00;;;;;;;30.88;43.22;97502.75;5068965;28;20100;-70
2023/08/15 10:40:50;;;;;;;0.00;0.00;;;;;;;30.86;43.28;97509.75;5068679;28;20509;-70
2023/08/15 10:43:17;;;;;;;0.00;0.00;;;;;;;30.92;44.99;97503.75;5066707;28;20055;-70
2023/08/15 10:45:50;;;;;;;0.28;0.28;;;;;;;31.00;45.68;97510.38;5055971;28;20500;-70
2023/08/15 10:48:36;;;;;;;0.00;0.00;;;;;;;31.01;45.92;97515.56;5065844;28;20481;-70
2023/08/15 10:51:21;;;;;;;0.00;0.00;;;;;;;31.19;46.24;97513.56;5067265;28;20068;-70
2023/08/15 10:53:49;;;;;;;0.00;0.00;;;;;;;31.37;45.18;97517.06;5066079;28;20037;-70
2023/08/15 10:56:19;;;;;;;0.00;0.00;;;;;;;31.50;44.64;97517.97;5060616;28;20041;-71
2023/08/15 10:58:47;;;;;;;0.00;0.00;;;;;;;31.36;45.60;97520.94;5057556;28;20043;-69
2023/08/15 11:01:18;;;;;;;0.00;0.00;;;;;;;31.43;46.33;97521.25;5061356;28;20037;-71
2023/08/15 11:03:48;;;;;;;0.00;0.00;;;;;;;31.42;46.99;97513.31;5064702;28;20040;-72
2023/08/15 11:06:17;;;;;;;0.00;0.00;;;;;;;31.37;46.85;97515.09;5061176;28;20037;-71
2023/08/15 11:08:47;;;;;;;0.00;0.00;;;;;;;31.15;47.64;97511.81;5063927;28;20120;-71
2023/08/15 11:11:16;;;;;;;0.10;0.10;;;;;;;31.13;47.58;97514.09;5064686;28;20040;-72
2023/08/15 11:13:45;;;;;;;0.00;0.00;;;;;;;30.96;48.03;97521.22;5063184;28;20036;-72
2023/08/15 11:16:15;;;;;;;0.10;0.10;;;;;;;30.99;48.51;97520.59;5054671;28;20082;-72
2023/08/15 11:18:44;;;;;;;0.00;0.00;;;;;;;30.93;48.57;97521.09;5064919;28;20041;-70
2023/08/15 11:21:13;;;;;;;0.00;0.00;;;;;;;30.93;48.33;97521.91;5065485;28;20045;-69
2023/08/15 11:23:42;;;;;;;0.00;0.00;;;;;;;31.03;48.33;97526.25;5054715;28;20120;-69
2023/08/15 11:26:10;;;;;;;0.00;0.00;;;;;;;31.12;47.90;97517.97;5059318;28;20051;-69
2023/08/15 11:28:39;;;;;;;0.00;0.00;;;;;;;31.22;47.37;97512.91;5057477;28;20042;-69
2023/08/15 11:31:09;;;;;;;0.00;0.00;;;;;;;31.34;46.81;97512.22;5063830;28;20107;-69
2023/08/15 11:33:51;;;;;;;0.00;0.00;;;;;;;31.41;46.68;97517.22;5066284;28;20474;-69
2023/08/15 11:36:19;;;;;;;0.00;0.00;;;;;;;31.36;46.59;97507.16;5065769;28;20040;-69
2023/08/15 11:38:47;;;;;;;0.10;0.10;;;;;;;31.16;46.34;97511.47;5067050;28;20405;-69
2023/08/15 11:41:15;;;;;;;0.00;0.00;;;;;;;31.45;46.41;97507.13;5067278;28;20052;-69